Time;durP1;ratioP1;P1;durP2;ratioP2;P2;SDS_P1;SDS_P2;PMS_P1;PMS_P2;Temp;Humidity;BMP_temperature;BMP_pressure;BME280_temperature;BME280_humidity;BME280_pressure;Samples;Min_cycle;Max_cycle;Signal;HPM_P1;HPM_P2
2022/04/28 00:02:11;;;;;;;8.80;7.27;;;;;;;10.04;73.37;97516.63;5032396;28;20182;-69
2022/04/28 00:04:37;;;;;;;10.80;8.03;;;;;;;9.91;73.89;97519.28;5032529;28;20265;-68
2022/04/28 00:07:03;;;;;;;9.73;7.00;;;;;;;9.79;74.65;97523.53;5032557;28;20254;-68
2022/04/28 00:09:29;;;;;;;8.33;6.73;;;;;;;9.86;74.56;97527.72;5032481;28;20274;-69
2022/04/28 00:11:54;;;;;;;8.23;7.10;;;;;;;9.76;74.63;97523.91;5032117;28;20261;-69
2022/04/28 00:14:20;;;;;;;8.70;7.67;;;;;;;9.74;75.27;97525.94;5032552;28;20663;-69
2022/04/28 00:16:46;;;;;;;7.93;7.07;;;;;;;9.66;74.86;97524.34;5014647;28;20225;-68
2022/04/28 00:19:11;;;;;;;7.47;6.50;;;;;;;9.71;74.80;97523.72;5032516;28;20179;-69
2022/04/28 00:21:36;;;;;;;8.80;7.00;;;;;;;9.75;74.24;97520.50;5014639;28;20648;-68
2022/04/28 00:24:02;;;;;;;8.67;6.93;;;;;;;9.63;74.47;97522.13;5032750;28;20187;-69
2022/04/28 00:26:27;;;;;;;6.80;5.97;;;;;;;9.57;74.17;97517.69;5031978;28;20191;-68
2022/04/28 00:28:53;;;;;;;8.43;6.67;;;;;;;9.72;74.11;97520.91;5032029;28;20182;-68
2022/04/28 00:31:18;;;;;;;10.83;6.90;;;;;;;9.51;74.55;97519.31;5031714;28;20675;-68
2022/04/28 00:33:44;;;;;;;7.40;6.57;;;;;;;9.55;74.69;97522.31;5031836;28;20182;-69
2022/04/28 00:36:10;;;;;;;7.90;6.30;;;;;;;9.53;74.33;97525.13;5032026;28;20648;-68
2022/04/28 00:38:35;;;;;;;8.77;5.97;;;;;;;9.57;74.42;97526.38;5032189;28;20575;-68
2022/04/28 00:41:01;;;;;;;5.73;5.23;;;;;;;9.53;74.50;97522.50;5032728;28;20606;-67
2022/04/28 00:43:29;;;;;;;7.10;6.40;;;;;;;9.50;74.47;97519.50;5032059;28;20191;-69
2022/04/28 00:45:56;;;;;;;7.07;5.90;;;;;;;9.46;73.88;97521.72;5024595;28;20194;-69
2022/04/28 00:51:07;;;;;;;6.70;6.00;;;;;;;9.43;74.59;97518.69;5017610;28;20190;-68
2022/04/28 00:53:41;;;;;;;5.93;5.23;;;;;;;9.36;74.93;97520.53;5035945;28;20229;-68
2022/04/28 00:56:09;;;;;;;8.33;6.73;;;;;;;9.33;75.19;97524.34;5035875;28;20214;-68
2022/04/28 00:58:36;;;;;;;7.83;6.13;;;;;;;9.25;75.44;97526.34;5035441;28;20560;-68
2022/04/28 01:01:02;;;;;;;8.37;6.93;;;;;;;9.34;75.33;97525.94;5018269;28;20193;-67
2022/04/28 01:03:30;;;;;;;6.87;6.17;;;;;;;9.22;76.18;97519.69;5035463;28;20222;-68
2022/04/28 01:05:56;;;;;;;7.77;5.97;;;;;;;9.21;76.05;97512.84;5036277;28;20190;-67
2022/04/28 01:08:22;;;;;;;6.87;6.10;;;;;;;9.14;76.30;97510.22;5035878;28;20544;-68
2022/04/28 01:10:47;;;;;;;7.40;6.50;;;;;;;9.25;76.33;97516.66;5035527;28;20232;-67
2022/04/28 01:13:12;;;;;;;7.60;6.77;;;;;;;9.25;76.10;97515.88;5035094;28;20178;-69
2022/04/28 01:15:44;;;;;;;7.47;6.63;;;;;;;9.11;76.71;97515.84;5035733;28;20569;-68
2022/04/28 01:18:09;;;;;;;8.50;6.83;;;;;;;9.03;77.21;97512.63;5035780;28;20185;-67
2022/04/28 01:20:34;;;;;;;7.13;6.07;;;;;;;9.06;77.52;97518.28;5035665;28;20339;-68
2022/04/28 01:23:00;;;;;;;7.30;6.60;;;;;;;9.05;77.52;97519.28;5035783;28;20268;-67
2022/04/28 01:25:25;;;;;;;10.97;7.30;;;;;;;9.15;77.50;97513.63;5035250;28;20213;-69
2022/04/28 01:27:51;;;;;;;9.20;6.67;;;;;;;9.00;78.12;97515.63;5035147;28;20201;-69
2022/04/28 01:30:16;;;;;;;7.50;6.67;;;;;;;8.96;78.42;97519.66;5035215;28;20178;-68
2022/04/28 01:32:42;;;;;;;10.00;7.73;;;;;;;9.01;78.38;97514.63;5035311;28;20541;-67
2022/04/28 01:35:08;;;;;;;8.67;6.90;;;;;;;8.86;78.83;97514.00;5034898;28;20206;-68
2022/04/28 01:37:34;;;;;;;7.43;6.63;;;;;;;8.89;79.01;97516.22;5034888;28;20186;-68
2022/04/28 01:39:59;;;;;;;9.27;7.60;;;;;;;8.88;79.54;97512.78;5035254;28;20545;-68
2022/04/28 01:42:25;;;;;;;8.00;7.13;;;;;;;9.05;78.87;97508.81;5034881;28;20187;-69
2022/04/28 01:44:51;;;;;;;9.93;7.37;;;;;;;8.86;79.47;97512.16;5017430;28;20634;-68
2022/04/28 01:47:17;;;;;;;10.83;7.53;;;;;;;8.85;80.52;97512.41;5017533;28;20178;-68
2022/04/28 01:49:42;;;;;;;9.53;7.70;;;;;;;8.88;79.94;97518.03;5017942;28;20232;-68
2022/04/28 01:54:58;;;;;;;8.60;7.70;;;;;;;8.96;79.42;97506.59;5020974;28;20260;-69
2022/04/28 01:57:29;;;;;;;8.87;7.40;;;;;;;8.93;79.45;97514.81;5035019;28;20686;-68
2022/04/28 01:59:56;;;;;;;9.23;7.63;;;;;;;8.86;79.99;97514.00;5035092;28;20174;-68
2022/04/28 02:02:22;;;;;;;8.43;7.20;;;;;;;8.84;80.08;97510.78;5034373;28;20191;-68
2022/04/28 02:04:48;;;;;;;13.83;7.37;;;;;;;8.82;79.81;97516.19;5034366;28;20290;-68
2022/04/28 02:07:13;;;;;;;10.43;8.23;;;;;;;8.82;80.06;97508.34;5034467;28;20385;-68
2022/04/28 02:09:43;;;;;;;7.90;7.10;;;;;;;8.74;80.32;97511.97;5034700;28;20648;-68
2022/04/28 02:12:10;;;;;;;9.07;7.43;;;;;;;8.79;79.92;97514.00;5016986;28;20189;-68
2022/04/28 02:14:38;;;;;;;8.27;7.40;;;;;;;8.80;79.93;97513.00;5033895;28;20190;-68
2022/04/28 02:17:06;;;;;;;8.83;7.97;;;;;;;8.76;80.60;97509.13;5017008;28;20633;-68
2022/04/28 02:19:32;;;;;;;9.53;7.67;;;;;;;8.67;80.93;97515.56;5033539;28;20258;-68
2022/04/28 02:21:58;;;;;;;9.87;7.60;;;;;;;8.73;80.87;97515.56;5016592;28;20323;-68
2022/04/28 02:24:24;;;;;;;8.87;7.57;;;;;;;8.78;80.52;97514.97;5034585;28;20179;-68
2022/04/28 02:26:49;;;;;;;8.73;7.53;;;;;;;8.65;81.00;97514.94;5034662;28;20637;-67
2022/04/28 02:29:16;;;;;;;9.23;7.30;;;;;;;8.60;81.54;97518.13;5033708;28;20633;-68
2022/04/28 02:31:41;;;;;;;9.77;7.67;;;;;;;8.63;81.29;97517.75;5033924;28;20189;-68
2022/04/28 02:34:07;;;;;;;10.20;8.30;;;;;;;8.62;81.99;97517.94;5034006;28;20183;-69
2022/04/28 02:36:32;;;;;;;9.53;7.60;;;;;;;8.61;81.88;97514.53;5033637;28;20190;-68
2022/04/28 02:38:58;;;;;;;12.27;8.33;;;;;;;8.48;82.67;97517.09;5033756;28;20735;-68
2022/04/28 02:41:23;;;;;;;10.17;8.13;;;;;;;8.50;82.82;97516.91;5034423;28;20229;-68
2022/04/28 02:43:49;;;;;;;9.27;7.57;;;;;;;8.44;83.68;97526.31;5033846;28;20186;-68
2022/04/28 02:46:15;;;;;;;9.10;7.77;;;;;;;8.39;83.83;97518.25;5016300;28;20696;-68
2022/04/28 02:48:41;;;;;;;9.43;7.60;;;;;;;8.36;83.92;97528.31;5033599;28;20265;-69
2022/04/28 02:51:06;;;;;;;10.83;9.00;;;;;;;8.30;84.94;97529.88;5033523;28;20232;-69
2022/04/28 02:53:33;;;;;;;10.87;8.27;;;;;;;8.40;84.43;97532.94;5033679;28;20206;-68
2022/04/28 02:55:59;;;;;;;10.57;8.63;;;;;;;8.41;84.76;97523.31;5033377;28;20191;-68
2022/04/28 02:58:24;;;;;;;11.80;9.40;;;;;;;8.21;85.56;97531.81;5033572;28;20182;-67
2022/04/28 03:00:49;;;;;;;11.17;9.17;;;;;;;8.44;84.85;97528.94;5033471;28;20225;-67
2022/04/28 03:03:15;;;;;;;11.87;8.73;;;;;;;8.31;85.62;97534.88;5033431;28;20238;-68
2022/04/28 03:11:09;;;;;;;13.43;10.30;;;;;;;8.26;87.00;97534.63;5033434;28;20181;-68
2022/04/28 03:13:35;;;;;;;15.57;10.93;;;;;;;8.10;88.54;97534.94;5033122;28;20641;-68
2022/04/28 03:16:01;;;;;;;14.47;11.00;;;;;;;8.04;89.31;97537.53;5032388;28;20261;-69
2022/04/28 03:18:27;;;;;;;12.43;10.57;;;;;;;8.14;88.52;97544.00;5033553;28;20608;-68
2022/04/28 03:20:53;;;;;;;14.50;11.63;;;;;;;8.23;88.54;97545.47;5033270;28;20210;-68
2022/04/28 03:23:18;;;;;;;13.63;11.07;;;;;;;8.16;88.65;97539.41;5033131;28;20194;-68
2022/04/28 03:25:44;;;;;;;15.30;10.43;;;;;;;8.02;89.31;97544.75;5015922;28;20187;-68
2022/04/28 03:28:10;;;;;;;16.20;11.33;;;;;;;8.05;89.25;97545.16;5033376;28;20702;-67
2022/04/28 03:30:36;;;;;;;17.30;11.60;;;;;;;7.95;89.91;97547.31;5032642;28;20198;-68
2022/04/28 03:33:01;;;;;;;13.10;9.93;;;;;;;8.01;89.68;97549.16;5033367;28;20187;-68
2022/04/28 03:35:27;;;;;;;15.97;11.17;;;;;;;8.08;89.20;97546.59;5032233;28;20221;-69
2022/04/28 03:37:52;;;;;;;15.13;11.63;;;;;;;7.99;89.61;97547.72;5032907;28;20195;-68
2022/04/28 03:40:18;;;;;;;13.40;10.60;;;;;;;8.02;90.27;97542.16;5033347;28;20182;-68
2022/04/28 03:42:44;;;;;;;15.10;11.17;;;;;;;8.05;90.02;97550.38;5033232;28;20186;-68
2022/04/28 03:45:11;;;;;;;13.60;10.60;;;;;;;8.01;90.27;97543.94;5032600;28;20193;-68
2022/04/28 03:47:37;;;;;;;14.40;11.53;;;;;;;7.91;90.52;97544.25;5033143;28;20186;-67
2022/04/28 03:50:04;;;;;;;13.93;11.03;;;;;;;7.93;90.56;97555.34;5014563;28;20201;-69
2022/04/28 03:52:30;;;;;;;13.23;11.00;;;;;;;8.05;90.14;97549.56;5032918;28;20309;-68
2022/04/28 03:54:56;;;;;;;17.20;10.90;;;;;;;7.94;90.98;97548.31;5032194;28;20206;-68
2022/04/28 03:57:21;;;;;;;14.20;11.57;;;;;;;8.10;90.31;97553.22;5033074;28;20193;-68
2022/04/28 03:59:46;;;;;;;14.57;11.40;;;;;;;7.96;91.09;97554.16;5032649;28;20206;-68
2022/04/28 04:02:12;;;;;;;14.53;10.87;;;;;;;7.90;90.93;97553.13;5032424;28;20723;-68
2022/04/28 04:04:38;;;;;;;17.07;11.50;;;;;;;7.88;90.68;97549.06;5032065;28;20230;-69
2022/04/28 04:07:04;;;;;;;14.80;10.97;;;;;;;8.01;90.20;97548.34;5032457;28;20182;-68
2022/04/28 04:09:29;;;;;;;13.07;10.40;;;;;;;8.02;89.41;97552.59;5032959;28;20593;-68
2022/04/28 04:11:54;;;;;;;14.10;10.73;;;;;;;8.08;88.91;97555.22;5032849;28;20194;-68
2022/04/28 04:14:20;;;;;;;12.90;10.20;;;;;;;8.01;88.96;97558.78;5032649;28;20262;-67
2022/04/28 04:16:45;;;;;;;13.27;10.47;;;;;;;8.07;89.04;97555.44;5032431;28;20692;-68
2022/04/28 04:19:10;;;;;;;15.53;10.53;;;;;;;8.08;89.32;97555.22;5014567;28;20241;-70
2022/04/28 04:21:36;;;;;;;13.77;10.80;;;;;;;8.14;88.73;97558.88;5032183;28;20210;-69
2022/04/28 04:24:02;;;;;;;14.83;10.40;;;;;;;8.20;88.49;97558.09;5032796;28;20220;-68
2022/04/28 04:26:28;;;;;;;13.83;10.67;;;;;;;8.18;88.86;97565.34;5034178;28;20605;-68
2022/04/28 04:28:53;;;;;;;15.00;11.03;;;;;;;8.19;89.07;97567.72;5036106;28;20276;-69
2022/04/28 04:34:02;;;;;;;16.10;10.50;;;;;;;8.15;88.88;97570.94;5036269;28;20189;-68
2022/04/28 04:36:28;;;;;;;13.77;10.70;;;;;;;8.17;89.17;97568.94;5035788;28;20230;-68
2022/04/28 04:38:53;;;;;;;12.73;10.63;;;;;;;8.15;88.90;97576.16;5035824;28;20186;-68
2022/04/28 04:41:18;;;;;;;15.37;10.10;;;;;;;8.21;88.82;97572.78;5036051;28;20179;-67
2022/04/28 04:43:44;;;;;;;13.77;9.13;;;;;;;8.20;88.74;97565.94;5036402;28;20187;-68
2022/04/28 04:46:09;;;;;;;12.43;10.00;;;;;;;8.13;89.42;97575.56;5018391;28;20653;-68
2022/04/28 04:48:35;;;;;;;11.77;10.23;;;;;;;8.36;88.02;97577.94;5036250;28;20193;-67
2022/04/28 04:51:02;;;;;;;12.23;9.23;;;;;;;8.05;90.00;97583.50;5018541;28;20213;-68
2022/04/28 04:53:28;;;;;;;12.23;9.33;;;;;;;8.24;89.44;97586.28;5036370;28;20194;-67
2022/04/28 04:55:53;;;;;;;14.63;10.40;;;;;;;8.82;87.39;97594.59;5036257;28;20203;-68
2022/04/28 04:58:18;;;;;;;10.97;9.70;;;;;;;8.85;85.85;97594.22;5018504;28;20649;-69
2022/04/28 05:00:44;;;;;;;10.47;9.17;;;;;;;9.14;85.21;97598.31;5035776;28;20565;-69
2022/04/28 05:03:09;;;;;;;11.20;8.97;;;;;;;9.40;84.26;97598.41;5035329;28;20273;-67
2022/04/28 05:05:34;;;;;;;12.10;8.17;;;;;;;9.34;83.93;97601.81;5035966;28;20183;-68
2022/04/28 05:08:00;;;;;;;9.20;8.07;;;;;;;9.48;83.32;97611.28;5035928;28;20209;-67
2022/04/28 05:10:25;;;;;;;11.87;8.80;;;;;;;10.26;80.01;97607.09;5035575;28;20646;-67
2022/04/28 05:12:51;;;;;;;9.20;8.20;;;;;;;10.40;78.33;97611.31;5035826;28;20194;-68
2022/04/28 05:15:16;;;;;;;9.17;7.83;;;;;;;10.81;76.76;97613.59;5035670;28;20210;-68
2022/04/28 05:17:42;;;;;;;9.77;7.97;;;;;;;10.81;75.90;97618.84;5035389;28;20179;-68
2022/04/28 05:20:08;;;;;;;8.67;7.60;;;;;;;10.87;75.24;97621.69;5035667;28;20696;-68
2022/04/28 05:22:34;;;;;;;8.93;7.37;;;;;;;11.04;74.66;97617.53;5035371;28;20186;-68
2022/04/28 05:24:59;;;;;;;7.73;6.73;;;;;;;11.01;72.45;97616.16;5034453;28;20248;-68
2022/04/28 05:27:25;;;;;;;9.20;7.03;;;;;;;11.09;72.51;97617.75;5035094;28;20191;-68
2022/04/28 05:29:51;;;;;;;7.70;6.90;;;;;;;11.12;73.25;97627.81;5017092;28;20596;-68
2022/04/28 05:32:16;;;;;;;8.53;6.80;;;;;;;11.56;71.33;97632.22;5017165;28;20193;-69
2022/04/28 05:34:42;;;;;;;7.40;6.47;;;;;;;11.41;70.91;97631.72;5034709;28;20191;-69
2022/04/28 05:37:09;;;;;;;9.23;6.60;;;;;;;11.38;71.45;97634.75;5034952;28;20308;-69
2022/04/28 05:39:34;;;;;;;9.67;7.23;;;;;;;11.47;71.22;97631.69;5018720;28;20186;-68
2022/04/28 05:42:01;;;;;;;8.90;7.57;;;;;;;11.53;70.71;97636.09;5035522;28;20253;-68
2022/04/28 05:47:11;;;;;;;8.67;7.73;;;;;;;11.60;70.92;97643.91;5034986;28;20320;-68
2022/04/28 05:49:38;;;;;;;8.50;7.07;;;;;;;11.83;69.45;97640.75;5035450;28;20195;-68
2022/04/28 05:52:04;;;;;;;8.70;6.47;;;;;;;11.74;69.26;97642.03;5035110;28;20178;-68
2022/04/28 05:54:29;;;;;;;10.87;7.90;;;;;;;11.76;69.08;97650.50;5034701;28;20295;-69
2022/04/28 05:56:55;;;;;;;12.37;6.90;;;;;;;11.91;67.94;97645.75;5034702;28;20712;-69
2022/04/28 05:59:20;;;;;;;7.53;6.73;;;;;;;12.16;67.19;97654.44;5034790;28;20183;-69
2022/04/28 06:01:45;;;;;;;8.77;7.87;;;;;;;12.06;66.94;97649.66;5034861;28;20252;-68
2022/04/28 06:04:11;;;;;;;8.87;6.70;;;;;;;12.34;67.15;97651.84;5034180;28;20661;-68
2022/04/28 06:06:37;;;;;;;7.10;6.40;;;;;;;12.46;66.86;97652.75;5017033;28;20202;-68
2022/04/28 06:09:03;;;;;;;7.67;6.60;;;;;;;12.57;66.27;97663.59;5033777;28;20530;-69
2022/04/28 06:11:29;;;;;;;7.63;6.60;;;;;;;13.01;65.18;97660.69;5016429;28;20179;-68
2022/04/28 06:13:54;;;;;;;7.30;6.40;;;;;;;12.58;66.32;97657.31;5034247;28;20178;-69
2022/04/28 06:16:19;;;;;;;9.53;6.13;;;;;;;12.71;65.74;97663.22;5034386;28;20199;-69
2022/04/28 06:18:45;;;;;;;7.23;6.30;;;;;;;12.58;66.60;97666.00;5033690;28;20659;-70
2022/04/28 06:21:10;;;;;;;7.60;6.63;;;;;;;12.46;67.20;97665.91;5033476;28;20186;-70
2022/04/28 06:23:36;;;;;;;7.43;6.07;;;;;;;12.40;65.39;97672.03;5033824;28;20560;-69
2022/04/28 06:26:01;;;;;;;6.47;5.50;;;;;;;12.41;66.34;97672.84;5034581;28;20194;-69
2022/04/28 06:28:27;;;;;;;8.37;5.93;;;;;;;12.31;65.90;97670.69;5034201;28;20265;-70
2022/04/28 06:30:53;;;;;;;7.63;6.13;;;;;;;12.58;65.72;97676.53;5016028;28;20201;-69
2022/04/28 06:33:21;;;;;;;7.37;6.63;;;;;;;12.67;65.70;97675.22;5033487;28;20183;-71
2022/04/28 06:35:47;;;;;;;7.83;6.03;;;;;;;12.87;66.64;97686.31;5027956;28;20222;-70
2022/04/28 06:38:12;;;;;;;9.23;3.37;;;;;;;13.60;89.68;97677.56;5032973;28;20213;-74
2022/04/28 06:40:38;;;;;;;6.37;5.53;;;;;;;14.01;77.58;97680.25;5033579;28;20187;-75
2022/04/28 06:43:03;;;;;;;6.83;5.73;;;;;;;13.72;64.24;97681.88;5034213;28;20183;-72
2022/04/28 06:45:28;;;;;;;7.43;5.40;;;;;;;13.17;62.78;97691.69;5033808;28;20516;-69
2022/04/28 06:47:54;;;;;;;13.40;6.83;;;;;;;13.09;64.44;97699.06;5015644;28;20180;-69
2022/04/28 06:50:19;;;;;;;7.60;6.63;;;;;;;12.96;64.80;97693.94;5018970;28;20183;-69
2022/04/28 06:52:44;;;;;;;10.00;7.17;;;;;;;13.17;65.51;97693.53;5033958;28;20174;-69
2022/04/28 06:55:11;;;;;;;9.83;8.03;;;;;;;12.94;65.77;97696.78;5014738;28;20257;-70
2022/04/28 06:57:37;;;;;;;11.77;6.97;;;;;;;12.98;63.94;97703.25;5032913;28;20274;-69
2022/04/28 07:00:07;;;;;;;14.00;7.40;;;;;;;12.73;65.16;97703.28;5032297;28;20245;-70
2022/04/28 07:02:33;;;;;;;8.83;6.77;;;;;;;12.85;64.38;97700.72;5032539;28;20205;-70
2022/04/28 07:04:59;;;;;;;9.23;7.10;;;;;;;12.60;65.09;97699.94;5031136;28;20227;-69
2022/04/28 07:07:25;;;;;;;6.63;6.00;;;;;;;12.83;63.56;97702.75;5027117;28;20180;-69
2022/04/28 07:09:50;;;;;;;6.73;6.03;;;;;;;12.72;64.00;97698.22;5025082;28;20633;-69
2022/04/28 07:12:16;;;;;;;11.50;6.80;;;;;;;12.88;64.46;97701.09;5031418;28;20186;-69
2022/04/28 07:14:43;;;;;;;11.67;6.23;;;;;;;13.29;63.28;97699.66;5033199;28;20258;-69
2022/04/28 07:17:09;;;;;;;10.60;6.90;;;;;;;13.57;63.19;97705.19;5032925;28;20264;-70
2022/04/28 07:19:34;;;;;;;7.90;6.17;;;;;;;13.65;61.75;97710.13;5032838;28;20229;-70
2022/04/28 07:22:02;;;;;;;10.00;7.30;;;;;;;13.34;62.70;97705.06;5033029;28;20724;-69
2022/04/28 07:24:29;;;;;;;11.83;6.97;;;;;;;13.63;61.66;97700.84;5032893;28;20193;-68
2022/04/28 07:26:55;;;;;;;6.50;5.83;;;;;;;13.36;60.09;97707.50;5032215;28;20649;-69
2022/04/28 07:29:20;;;;;;;6.63;5.83;;;;;;;13.54;59.95;97712.75;5014648;28;20197;-69
2022/04/28 07:31:45;;;;;;;7.17;6.47;;;;;;;13.59;60.83;97715.50;5032705;28;20281;-69
2022/04/28 07:34:11;;;;;;;10.50;6.53;;;;;;;13.49;61.06;97708.13;5032256;28;20248;-69
2022/04/28 07:36:37;;;;;;;8.93;6.10;;;;;;;13.47;61.10;97715.44;5032645;28;20637;-69
2022/04/28 07:39:02;;;;;;;6.20;5.60;;;;;;;13.55;60.23;97716.97;5032317;28;20373;-69
2022/04/28 07:41:28;;;;;;;6.67;5.47;;;;;;;13.94;58.91;97710.34;5032508;28;20193;-69
2022/04/28 07:43:54;;;;;;;6.53;5.80;;;;;;;14.30;58.44;97710.22;5014104;28;20191;-69
2022/04/28 07:46:19;;;;;;;9.23;5.90;;;;;;;14.31;57.65;97716.28;4997987;28;20548;-69
2022/04/28 07:48:45;;;;;;;8.63;6.50;;;;;;;14.15;58.85;97715.91;5032418;28;20198;-69
2022/04/28 07:51:10;;;;;;;6.10;5.50;;;;;;;14.21;58.09;97718.69;5032999;28;20220;-70
2022/04/28 07:53:35;;;;;;;11.10;5.53;;;;;;;14.02;58.12;97720.59;5031909;28;20669;-69
2022/04/28 07:56:13;;;;;;;6.60;5.43;;;;;;;14.49;57.88;97721.50;5032377;28;20252;-69
2022/04/28 07:58:38;;;;;;;8.37;6.00;;;;;;;13.95;57.98;97720.66;5032754;28;20257;-69
2022/04/28 08:01:04;;;;;;;6.77;6.07;;;;;;;14.11;58.58;97727.94;5032454;28;20286;-69
2022/04/28 08:03:30;;;;;;;6.87;5.30;;;;;;;14.94;56.54;97725.16;5031884;28;20644;-69
2022/04/28 08:05:55;;;;;;;6.77;5.30;;;;;;;15.17;56.33;97723.53;5032350;28;20196;-69
2022/04/28 08:08:21;;;;;;;5.60;4.70;;;;;;;15.28;53.39;97730.63;5031738;28;20197;-70
2022/04/28 08:10:47;;;;;;;5.97;4.90;;;;;;;15.20;52.81;97731.81;5032545;28;20182;-69
2022/04/28 08:13:12;;;;;;;4.87;4.37;;;;;;;15.27;52.96;97727.19;5032511;28;20229;-69
2022/04/28 08:15:38;;;;;;;5.10;4.60;;;;;;;15.07;52.68;97729.41;5031691;28;20716;-70
2022/04/28 08:18:04;;;;;;;5.53;4.97;;;;;;;15.34;53.57;97735.78;5032826;28;20202;-69
2022/04/28 08:20:30;;;;;;;6.60;5.53;;;;;;;15.23;53.29;97736.63;5032417;28;20233;-69
2022/04/28 08:22:55;;;;;;;6.70;5.17;;;;;;;15.44;52.59;97724.63;5032066;28;20241;-69
2022/04/28 08:25:21;;;;;;;4.97;4.10;;;;;;;15.28;49.26;97734.09;5014297;28;20186;-69
2022/04/28 08:27:46;;;;;;;7.10;4.53;;;;;;;15.21;51.84;97737.91;5031423;28;20190;-69
2022/04/28 08:30:12;;;;;;;5.77;4.20;;;;;;;15.40;51.36;97740.16;5013637;28;20187;-70
2022/04/28 08:32:37;;;;;;;4.63;3.90;;;;;;;15.32;48.77;97737.84;5032422;28;20259;-70
2022/04/28 08:35:03;;;;;;;3.93;3.63;;;;;;;14.97;51.06;97737.94;5032203;28;20182;-69
2022/04/28 08:37:29;;;;;;;5.43;4.10;;;;;;;15.03;50.15;97738.84;5014203;28;20178;-70
2022/04/28 08:39:54;;;;;;;4.90;4.37;;;;;;;15.26;49.45;97732.72;5031475;28;20633;-70
2022/04/28 08:42:21;;;;;;;4.63;3.67;;;;;;;15.28;48.61;97738.56;5031985;28;20198;-69
2022/04/28 08:44:47;;;;;;;5.57;4.67;;;;;;;14.96;48.79;97731.03;5031496;28;20179;-71
2022/04/28 08:47:13;;;;;;;5.93;4.27;;;;;;;14.83;49.79;97733.91;5032500;28;20237;-70
2022/04/28 08:49:43;;;;;;;4.77;4.10;;;;;;;15.53;48.90;97738.31;5031699;28;20201;-70
2022/04/28 08:52:10;;;;;;;4.77;4.23;;;;;;;15.50;48.04;97738.72;5032312;28;20637;-70
2022/04/28 08:54:39;;;;;;;4.60;3.87;;;;;;;15.15;48.32;97736.19;5031929;28;20248;-71
2022/04/28 08:57:05;;;;;;;4.50;4.10;;;;;;;15.36;48.82;97731.09;5028366;28;20206;-70
2022/04/28 08:59:31;;;;;;;6.43;4.57;;;;;;;15.73;49.56;97728.94;5013773;28;20229;-70
2022/04/28 09:01:56;;;;;;;3.43;3.13;;;;;;;16.02;45.40;97729.72;5032065;28;20569;-70
2022/04/28 09:04:23;;;;;;;3.73;3.00;;;;;;;15.83;44.48;97732.81;5013961;28;20222;-70
2022/04/28 09:06:51;;;;;;;4.43;2.93;;;;;;;15.99;44.53;97721.47;5014313;28;20198;-70
2022/04/28 09:09:17;;;;;;;4.53;2.90;;;;;;;16.16;44.10;97736.31;5032051;28;20249;-70
2022/04/28 09:11:44;;;;;;;5.27;3.10;;;;;;;16.14;43.79;97729.66;5032053;28;20178;-71
2022/04/28 09:14:15;;;;;;;3.60;3.30;;;;;;;16.38;43.94;97738.28;5033371;28;20539;-70
2022/04/28 09:16:52;;;;;;;5.43;3.10;;;;;;;16.46;42.46;97735.22;5035818;28;20216;-70
2022/04/28 09:19:22;;;;;;;3.10;2.80;;;;;;;16.53;41.65;97739.31;5035594;28;20208;-71
2022/04/28 09:21:50;;;;;;;4.17;3.20;;;;;;;16.68;41.47;97738.78;5035551;28;20175;-70
2022/04/28 09:24:16;;;;;;;3.00;2.80;;;;;;;17.17;41.96;97744.22;5034669;28;20195;-68
2022/04/28 09:26:43;;;;;;;3.00;2.70;;;;;;;17.09;42.04;97742.00;5028575;28;20178;-68
2022/04/28 09:29:13;;;;;;;3.10;2.80;;;;;;;17.42;40.59;97745.38;5035429;28;20544;-68
2022/04/28 09:31:41;;;;;;;3.10;2.80;;;;;;;17.26;40.33;97732.97;5035096;28;20191;-69
2022/04/28 09:34:11;;;;;;;2.90;2.70;;;;;;;17.21;40.81;97734.75;5034511;28;20194;-71
2022/04/28 09:36:39;;;;;;;6.03;3.00;;;;;;;17.56;39.63;97735.19;5033660;28;20234;-69
2022/04/28 09:39:06;;;;;;;4.10;2.83;;;;;;;17.02;38.80;97731.59;5035369;28;20189;-68
2022/04/28 09:44:19;;;;;;;2.70;2.50;;;;;;;17.68;38.21;97727.94;5034386;28;20229;-69
2022/04/28 09:46:46;;;;;;;3.00;2.80;;;;;;;17.63;39.00;97733.19;5034985;28;20274;-68
2022/04/28 09:49:14;;;;;;;3.73;2.67;;;;;;;17.46;38.97;97735.06;5035096;28;20228;-68
2022/04/28 09:51:41;;;;;;;2.40;2.20;;;;;;;17.41;35.98;97733.16;5034968;28;20189;-68
2022/04/28 09:54:09;;;;;;;3.50;2.80;;;;;;;16.88;38.50;97730.34;5034735;28;20661;-68
2022/04/28 09:56:36;;;;;;;3.57;3.03;;;;;;;16.58;39.98;97736.75;5016828;28;20213;-69
2022/04/28 09:59:05;;;;;;;2.93;2.73;;;;;;;16.29;39.45;97721.97;5032108;28;20958;-69
2022/04/28 10:01:34;;;;;;;4.37;2.50;;;;;;;16.38;39.41;97715.28;5033309;28;20218;-67
2022/04/28 10:04:00;;;;;;;3.10;2.50;;;;;;;16.54;40.66;97734.84;5032544;28;20265;-69
2022/04/28 10:06:26;;;;;;;2.97;2.67;;;;;;;16.23;40.47;97726.38;5034272;28;20214;-69
2022/04/28 10:08:52;;;;;;;2.83;2.50;;;;;;;16.18;40.74;97728.13;5034323;28;20226;-70
2022/04/28 10:11:21;;;;;;;3.00;2.50;;;;;;;16.16;39.94;97730.25;5034101;28;20251;-69
2022/04/28 10:13:48;;;;;;;3.23;2.40;;;;;;;16.54;38.90;97726.88;5034063;28;20188;-68
2022/04/28 10:16:15;;;;;;;2.53;2.33;;;;;;;16.39;39.37;97729.28;5034060;28;20229;-69
2022/04/28 10:18:49;;;;;;;3.27;2.97;;;;;;;16.38;40.90;97730.34;5034060;28;20175;-69
2022/04/28 10:21:19;;;;;;;3.37;3.17;;;;;;;15.76;40.70;97728.47;5034294;28;20610;-69
2022/04/28 10:32:23;;;;;;;2.73;2.20;;;;;;;16.45;38.76;97709.78;5029401;28;20218;-69
2022/04/28 10:35:07;;;;;;;2.87;2.53;;;;;;;16.35;39.32;97713.09;5033897;28;20171;-69
2022/04/28 10:37:41;;;;;;;2.37;2.27;;;;;;;16.37;39.59;97718.16;5034174;28;20174;-69
2022/04/28 10:40:13;;;;;;;3.73;2.60;;;;;;;16.14;37.72;97713.78;5033679;28;20254;-70
2022/04/28 10:42:38;;;;;;;2.40;2.20;;;;;;;16.40;38.59;97710.50;5033561;28;20574;-69
2022/04/28 10:45:20;;;;;;;2.70;2.50;;;;;;;16.34;37.44;97718.59;5033783;28;20290;-70
2022/04/28 10:47:45;;;;;;;2.63;2.43;;;;;;;16.36;38.01;97704.09;5033238;28;20175;-70
2022/04/28 10:50:25;;;;;;;2.37;2.27;;;;;;;16.23;37.90;97712.34;5034003;28;20314;-69
2022/04/28 10:53:01;;;;;;;2.63;2.27;;;;;;;16.59;38.42;97705.81;5015577;28;20190;-69
2022/04/28 10:55:42;;;;;;;2.40;2.20;;;;;;;16.72;38.90;97704.69;5033454;28;20212;-69
2022/04/28 10:58:18;;;;;;;2.90;2.20;;;;;;;16.98;38.84;97712.75;5033520;28;20265;-69
2022/04/28 11:00:53;;;;;;;4.63;2.30;;;;;;;17.16;38.21;97705.56;5015166;28;20206;-68
2022/04/28 11:03:54;;;;;;;3.23;2.73;;;;;;;16.63;37.31;97714.88;5014906;28;20226;-70
2022/04/28 11:06:27;;;;;;;2.97;2.67;;;;;;;16.18;38.20;97706.97;5032972;28;20688;-68
2022/04/28 11:08:56;;;;;;;2.27;2.10;;;;;;;16.56;38.32;97707.06;5032759;28;20183;-68
2022/04/28 11:11:25;;;;;;;3.03;2.47;;;;;;;16.66;39.13;97703.81;5033247;28;20272;-68
2022/04/28 11:13:58;;;;;;;3.07;2.60;;;;;;;16.40;37.44;97717.66;5032826;28;20187;-69
2022/04/28 11:16:25;;;;;;;2.67;2.47;;;;;;;16.53;37.97;97704.91;5033098;28;20198;-68
2022/04/28 11:18:52;;;;;;;3.07;2.60;;;;;;;16.53;38.53;97702.25;5032897;28;20596;-69
2022/04/28 11:21:18;;;;;;;2.93;2.70;;;;;;;16.41;39.26;97708.69;5017005;28;20174;-68
2022/04/28 11:23:46;;;;;;;3.77;2.70;;;;;;;16.87;39.44;97715.50;5032068;28;20221;-69
2022/04/28 11:26:12;;;;;;;3.00;2.70;;;;;;;16.43;38.30;97709.25;5032569;28;20249;-69
2022/04/28 11:28:39;;;;;;;2.83;2.50;;;;;;;16.63;38.43;97714.88;5032582;28;20568;-68
2022/04/28 11:31:16;;;;;;;4.00;2.40;;;;;;;16.54;37.99;97703.06;5032393;28;20202;-68
2022/04/28 11:33:45;;;;;;;2.87;2.60;;;;;;;16.88;39.27;97707.31;5031955;28;20186;-68
2022/04/28 11:36:29;;;;;;;2.40;2.20;;;;;;;17.21;38.63;97709.06;5031651;28;20238;-68
2022/04/28 11:38:57;;;;;;;3.80;2.67;;;;;;;17.07;38.46;97717.59;5032347;28;20202;-68
2022/04/28 11:41:35;;;;;;;3.30;2.90;;;;;;;16.88;38.34;97711.81;5033010;28;20178;-69
2022/04/28 11:44:06;;;;;;;5.27;2.83;;;;;;;17.26;37.69;97709.13;5031480;28;20269;-69
2022/04/28 11:46:34;;;;;;;2.50;2.33;;;;;;;17.23;37.55;97711.47;5032525;28;20174;-69
2022/04/28 11:48:59;;;;;;;3.17;2.60;;;;;;;16.98;37.40;97711.94;5032475;28;20648;-68
2022/04/28 11:51:25;;;;;;;2.97;2.70;;;;;;;16.86;37.34;97700.66;5032459;28;20248;-69
2022/04/28 11:53:52;;;;;;;2.90;2.60;;;;;;;17.21;37.41;97711.72;5032589;28;20244;-70
2022/04/28 11:56:21;;;;;;;3.40;2.57;;;;;;;16.94;37.05;97705.53;5032400;28;20199;-69
2022/04/28 11:58:49;;;;;;;3.03;2.83;;;;;;;16.77;37.29;97705.56;5017062;28;20182;-69
2022/04/28 12:01:15;;;;;;;5.83;2.30;;;;;;;16.61;38.75;97709.81;5032893;28;20201;-69